Time;durP1;ratioP1;P1;durP2;ratioP2;P2;SDS_P1;SDS_P2;PMS_P1;PMS_P2;Temp;Humidity;BMP_temperature;BMP_pressure;BME280_temperature;BME280_humidity;BME280_pressure;Samples;Min_cycle;Max_cycle;Signal;HPM_P1;HPM_P2
2022/10/11 00:01:47;;;;;;;14.20;1.48;;;;;;;0.69;100.00;102001.75;5043232;28;20029;-50
2022/10/11 00:04:13;;;;;;;6.93;0.95;;;;;;;0.65;100.00;101994.13;5033481;28;20080;-47
2022/10/11 00:06:38;;;;;;;3.08;1.05;;;;;;;0.64;100.00;101997.63;5043290;28;20041;-45
2022/10/11 00:09:04;;;;;;;5.30;1.00;;;;;;;0.70;100.00;102006.03;5046712;28;20470;-46
2022/10/11 00:11:30;;;;;;;5.80;1.27;;;;;;;0.73;100.00;101987.63;5048875;28;20033;-46
2022/10/11 00:13:55;;;;;;;5.85;1.45;;;;;;;0.72;100.00;101991.13;5047797;28;20028;-46
2022/10/11 00:16:21;;;;;;;5.30;1.00;;;;;;;0.71;100.00;101994.69;5040998;28;20037;-46
2022/10/11 00:18:47;;;;;;;3.13;1.00;;;;;;;0.70;100.00;102013.88;5044108;28;20166;-45
2022/10/11 00:21:16;;;;;;;5.13;1.13;;;;;;;0.69;100.00;102012.22;5041652;28;20115;-45
2022/10/11 00:23:42;;;;;;;5.05;1.48;;;;;;;0.68;100.00;102006.16;5045983;28;20071;-47
2022/10/11 00:26:09;;;;;;;3.97;1.27;;;;;;;0.64;100.00;102000.25;5041276;28;20091;-45
2022/10/11 00:28:35;;;;;;;3.25;1.20;;;;;;;0.60;100.00;102013.59;5048162;28;20097;-43
2022/10/11 00:31:04;;;;;;;3.03;0.80;;;;;;;0.53;100.00;102018.31;5040725;28;20111;-44
2022/10/11 00:33:30;;;;;;;3.90;1.00;;;;;;;0.51;100.00;102012.34;5050220;28;20151;-44
2022/10/11 00:35:58;;;;;;;4.28;1.00;;;;;;;0.49;100.00;102014.22;5044118;28;20563;-45
2022/10/11 00:38:24;;;;;;;1.92;0.60;;;;;;;0.44;100.00;102018.84;5051390;28;20610;-44
2022/10/11 00:40:49;;;;;;;9.73;1.83;;;;;;;0.45;100.00;102019.69;5041531;28;20462;-43
2022/10/11 00:43:21;;;;;;;3.85;1.48;;;;;;;0.50;100.00;102021.09;5040246;28;20040;-44
2022/10/11 00:45:55;;;;;;;7.13;2.85;;;;;;;0.52;100.00;102024.47;5031096;28;20033;-50
2022/10/11 00:48:32;;;;;;;14.00;1.55;;;;;;;0.50;100.00;102034.16;5040675;28;20043;-45
2022/10/11 00:51:01;;;;;;;5.35;0.80;;;;;;;0.50;100.00;102031.53;5034040;28;20620;-47
2022/10/11 00:53:29;;;;;;;1.70;0.35;;;;;;;0.52;100.00;102026.25;5040887;28;20049;-44
2022/10/11 00:56:05;;;;;;;4.22;0.93;;;;;;;0.48;100.00;102022.13;5041096;28;20083;-43
2022/10/11 00:58:33;;;;;;;2.78;0.82;;;;;;;0.39;100.00;102033.94;5040974;28;20041;-44
2022/10/11 01:00:59;;;;;;;4.13;1.58;;;;;;;0.34;100.00;102035.97;5042485;28;20025;-43
2022/10/11 01:03:27;;;;;;;3.08;0.75;;;;;;;0.38;100.00;102037.47;5041456;28;20489;-46
2022/10/11 01:05:53;;;;;;;5.35;1.30;;;;;;;0.37;100.00;102027.97;5031721;28;20116;-43
2022/10/11 01:08:19;;;;;;;8.15;1.38;;;;;;;0.32;100.00;102025.59;5035359;28;20031;-46
2022/10/11 01:10:45;;;;;;;3.08;1.75;;;;;;;0.26;100.00;102031.19;5047637;28;20104;-44
2022/10/11 01:13:34;;;;;;;7.97;1.10;;;;;;;0.27;100.00;102037.22;5041859;28;20028;-45
2022/10/11 01:16:27;;;;;;;5.13;0.90;;;;;;;0.27;100.00;102026.78;5038821;28;20021;-46
2022/10/11 01:19:22;;;;;;;5.45;1.25;;;;;;;0.25;100.00;102036.47;5045315;28;20033;-45
2022/10/11 01:22:13;;;;;;;3.72;1.08;;;;;;;0.26;100.00;102033.78;5031396;28;20139;-44
2022/10/11 01:24:41;;;;;;;2.50;0.60;;;;;;;0.25;100.00;102028.66;5036116;28;20051;-47
2022/10/11 01:27:19;;;;;;;2.50;0.38;;;;;;;0.22;100.00;102035.72;5035437;28;20302;-45
2022/10/11 01:30:26;;;;;;;4.00;0.52;;;;;;;0.20;100.00;102024.50;5045697;28;20386;-44
2022/10/11 01:33:13;;;;;;;4.35;1.25;;;;;;;0.13;100.00;102014.50;5034925;28;20532;-48
2022/10/11 01:35:38;;;;;;;2.67;0.50;;;;;;;0.04;100.00;102018.47;5035444;28;20025;-43
2022/10/11 01:38:28;;;;;;;2.28;0.55;;;;;;;0.02;100.00;102022.09;5034387;28;20051;-45
2022/10/11 01:41:01;;;;;;;2.47;0.77;;;;;;;-0.04;100.00;102015.47;5042661;28;20095;-45
2022/10/11 01:43:27;;;;;;;1.02;0.25;;;;;;;-0.12;100.00;102015.88;5044995;28;20059;-49
2022/10/11 01:45:55;;;;;;;6.72;0.57;;;;;;;-0.15;100.00;102016.06;5038491;28;20034;-47
2022/10/11 01:48:20;;;;;;;3.45;0.85;;;;;;;-0.12;100.00;102015.03;5043046;28;20123;-45
2022/10/11 01:50:47;;;;;;;5.00;1.45;;;;;;;-0.17;100.00;101998.81;5041604;28;20033;-48
2022/10/11 01:53:34;;;;;;;0.52;0.50;;;;;;;-0.15;100.00;102005.63;5036332;28;20116;-47
2022/10/11 01:56:30;;;;;;;4.63;0.50;;;;;;;-0.18;100.00;102003.19;5046490;28;20048;-45
2022/10/11 01:59:04;;;;;;;2.90;0.60;;;;;;;-0.15;100.00;101996.97;5047347;28;20025;-46
2022/10/11 02:01:53;;;;;;;2.50;0.50;;;;;;;-0.12;100.00;101994.19;5049402;28;20025;-44
2022/10/11 02:04:44;;;;;;;2.35;0.75;;;;;;;-0.17;100.00;101994.44;5046494;28;20094;-47
2022/10/11 02:07:23;;;;;;;3.20;0.30;;;;;;;-0.18;100.00;101999.72;5038328;28;20037;-45
2022/10/11 02:10:02;;;;;;;1.70;0.65;;;;;;;-0.20;100.00;101996.38;5044361;28;20033;-43
2022/10/11 02:12:40;;;;;;;8.90;0.95;;;;;;;-0.24;100.00;101988.69;5027351;28;20040;-44
2022/10/11 02:15:08;;;;;;;3.03;0.75;;;;;;;-0.29;100.00;101993.31;5045097;28;20124;-45
2022/10/11 02:17:40;;;;;;;1.50;0.50;;;;;;;-0.26;100.00;102002.75;5050206;28;20042;-44
2022/10/11 02:20:13;;;;;;;4.75;0.98;;;;;;;-0.22;100.00;101999.88;5044509;28;20033;-44
2022/10/11 02:22:42;;;;;;;4.13;1.27;;;;;;;-0.27;100.00;102001.91;5037655;28;20034;-43
2022/10/11 02:25:11;;;;;;;3.55;0.90;;;;;;;-0.29;100.00;102008.97;5036218;28;20032;-47
2022/10/11 02:27:39;;;;;;;3.30;0.22;;;;;;;-0.29;100.00;102003.75;5044011;28;20457;-48
2022/10/11 02:30:06;;;;;;;4.90;2.15;;;;;;;-0.23;100.00;101997.38;5044040;28;20040;-46
2022/10/11 02:32:34;;;;;;;2.25;0.30;;;;;;;-0.26;100.00;102000.13;5048807;28;20371;-48
2022/10/11 02:35:01;;;;;;;8.05;1.85;;;;;;;-0.31;100.00;102005.63;5045216;28;20445;-47
2022/10/11 02:37:52;;;;;;;5.93;1.85;;;;;;;-0.31;100.00;101999.53;5051666;28;20029;-46
2022/10/11 02:40:26;;;;;;;3.92;0.82;;;;;;;-0.39;100.00;101999.97;5043831;28;20025;-45
2022/10/11 02:43:18;;;;;;;8.55;1.10;;;;;;;-0.45;100.00;101993.31;5034354;28;20032;-45
2022/10/11 02:45:56;;;;;;;1.98;0.28;;;;;;;-0.50;100.00;101994.50;5042649;28;20060;-43
2022/10/11 02:48:24;;;;;;;1.98;0.20;;;;;;;-0.61;100.00;101986.41;5045089;28;20033;-44
2022/10/11 02:50:50;;;;;;;0.60;0.20;;;;;;;-0.66;100.00;101997.09;5050197;28;20033;-47
2022/10/11 02:53:15;;;;;;;1.00;0.52;;;;;;;-0.60;100.00;101990.69;5043091;28;20423;-45
2022/10/11 02:55:41;;;;;;;2.67;1.10;;;;;;;-0.60;100.00;101994.13;5041710;28;20029;-45
2022/10/11 02:58:06;;;;;;;11.32;0.80;;;;;;;-0.62;100.00;101996.00;5045563;28;20029;-44
2022/10/11 03:00:31;;;;;;;3.13;0.55;;;;;;;-0.71;100.00;101989.50;5045164;28;20029;-46
2022/10/11 03:02:57;;;;;;;7.95;0.65;;;;;;;-0.69;100.00;101992.88;5041843;28;20028;-46
2022/10/11 03:05:22;;;;;;;5.10;1.27;;;;;;;-0.61;100.00;101989.03;5034175;28;20494;-45
2022/10/11 03:07:47;;;;;;;4.10;0.75;;;;;;;-0.62;100.00;101995.16;5041970;28;20036;-46
2022/10/11 03:10:13;;;;;;;3.17;0.73;;;;;;;-0.68;100.00;101985.91;5041218;28;20042;-46
2022/10/11 03:12:38;;;;;;;6.30;0.88;;;;;;;-0.72;100.00;101987.81;5043917;28;20044;-45
2022/10/11 03:15:04;;;;;;;3.72;0.30;;;;;;;-0.74;100.00;101987.06;5036781;28;20074;-45
2022/10/11 03:17:30;;;;;;;5.18;0.73;;;;;;;-0.78;100.00;101992.50;5043009;28;20648;-45
2022/10/11 03:19:55;;;;;;;2.50;0.55;;;;;;;-0.75;100.00;101990.59;5040689;28;20032;-46
2022/10/11 03:22:21;;;;;;;3.70;1.02;;;;;;;-0.70;100.00;101983.38;5038431;28;20021;-45
2022/10/11 03:24:46;;;;;;;3.20;0.65;;;;;;;-0.73;100.00;101987.91;5032624;28;20513;-47
2022/10/11 03:27:11;;;;;;;3.03;2.10;;;;;;;-0.79;100.00;101989.06;5048333;28;20478;-44
2022/10/11 03:29:37;;;;;;;3.97;1.25;;;;;;;-0.81;100.00;101987.47;5043899;28;20382;-44
2022/10/11 03:32:02;;;;;;;6.15;1.73;;;;;;;-0.77;100.00;101981.19;5037438;28;20036;-47
2022/10/11 03:34:28;;;;;;;2.58;1.02;;;;;;;-0.72;100.00;101973.97;5037796;28;20029;-46
2022/10/11 03:36:53;;;;;;;9.63;0.52;;;;;;;-0.73;100.00;101980.09;5037568;28;20033;-45
2022/10/11 03:39:19;;;;;;;2.15;0.55;;;;;;;-0.81;100.00;101983.09;5047038;28;20107;-48
2022/10/11 03:41:44;;;;;;;2.80;0.55;;;;;;;-0.89;100.00;101987.88;5047109;28;20029;-44
2022/10/11 03:44:10;;;;;;;2.40;1.02;;;;;;;-0.89;100.00;101985.25;5044475;28;20025;-45
2022/10/11 03:46:35;;;;;;;4.75;0.95;;;;;;;-0.84;100.00;101992.84;5031803;28;20546;-47
2022/10/11 03:49:00;;;;;;;2.20;0.70;;;;;;;-0.86;100.00;101998.13;5039652;28;20064;-45
2022/10/11 03:51:26;;;;;;;6.40;0.90;;;;;;;-0.91;100.00;101995.75;5035061;28;20034;-45
2022/10/11 03:53:51;;;;;;;5.57;0.45;;;;;;;-0.98;100.00;101996.13;5050970;28;20029;-47
2022/10/11 03:56:16;;;;;;;3.75;0.90;;;;;;;-0.98;100.00;101997.00;5038231;28;20543;-44
2022/10/11 03:58:42;;;;;;;8.88;1.30;;;;;;;-0.94;100.00;101990.69;5040365;28;20025;-45
2022/10/11 04:01:07;;;;;;;7.28;1.08;;;;;;;-0.91;100.00;101997.50;5048677;28;20029;-44
2022/10/11 04:03:33;;;;;;;5.18;0.55;;;;;;;-0.98;100.00;101998.75;5042734;28;20506;-46
2022/10/11 04:05:59;;;;;;;3.50;0.40;;;;;;;-0.97;100.00;101993.47;5043120;28;20025;-45
2022/10/11 04:08:24;;;;;;;3.67;0.88;;;;;;;-0.98;100.00;101998.75;5043198;28;20120;-44
2022/10/11 04:10:49;;;;;;;3.33;0.98;;;;;;;-1.05;100.00;102007.81;5032739;28;20467;-46
2022/10/11 04:13:15;;;;;;;6.60;1.52;;;;;;;-1.10;100.00;102011.47;5046049;28;20032;-44
2022/10/11 04:15:40;;;;;;;3.45;0.90;;;;;;;-1.13;100.00;102011.66;5046705;28;20581;-43
2022/10/11 04:18:06;;;;;;;3.40;0.90;;;;;;;-1.12;100.00;102008.09;5046407;28;20419;-44
2022/10/11 04:20:32;;;;;;;8.60;1.63;;;;;;;-1.12;100.00;102009.88;5037545;28;20034;-47
2022/10/11 04:22:57;;;;;;;3.33;0.60;;;;;;;-1.09;100.00;102007.09;5044129;28;20048;-44
2022/10/11 04:25:23;;;;;;;5.50;1.08;;;;;;;-1.07;100.00;102005.28;5036210;28;20124;-46
2022/10/11 04:27:48;;;;;;;6.25;1.13;;;;;;;-1.10;100.00;102021.06;5035560;28;20045;-44
2022/10/11 04:30:15;;;;;;;7.95;1.10;;;;;;;-1.14;100.00;102015.16;5042358;28;20095;-46
2022/10/11 04:32:40;;;;;;;10.15;0.90;;;;;;;-1.10;100.00;102008.88;5038438;28;20040;-44
2022/10/11 04:35:06;;;;;;;4.70;1.25;;;;;;;-1.10;100.00;102010.66;5045804;28;20041;-45
2022/10/11 04:37:32;;;;;;;3.67;0.50;;;;;;;-1.14;100.00;102016.91;5035076;28;20072;-44
2022/10/11 04:39:57;;;;;;;4.00;0.85;;;;;;;-1.15;100.00;102016.06;5035357;28;20148;-45
2022/10/11 04:42:22;;;;;;;7.05;1.38;;;;;;;-1.16;100.00;102019.63;5042652;28;20115;-45
2022/10/11 04:44:48;;;;;;;4.72;1.13;;;;;;;-1.18;100.00;102024.03;5047632;28;20033;-45
2022/10/11 04:47:13;;;;;;;3.92;0.32;;;;;;;-1.15;100.00;102023.88;5044599;28;20144;-47
2022/10/11 04:49:39;;;;;;;6.22;1.33;;;;;;;-1.11;100.00;102022.81;5038437;28;20040;-44
2022/10/11 04:52:04;;;;;;;2.53;0.38;;;;;;;-1.12;100.00;102025.50;5050969;28;20052;-44
2022/10/11 04:54:29;;;;;;;3.35;0.63;;;;;;;-1.19;100.00;102030.19;5041287;28;20108;-44
2022/10/11 04:56:55;;;;;;;2.28;0.57;;;;;;;-1.18;100.00;102036.22;5038582;28;20064;-46
2022/10/11 04:59:20;;;;;;;1.23;0.43;;;;;;;-1.20;100.00;102031.09;5039670;28;20025;-44
2022/10/11 05:01:46;;;;;;;10.05;2.58;;;;;;;-1.23;100.00;102036.44;5042336;28;20492;-46
2022/10/11 05:04:12;;;;;;;5.90;1.80;;;;;;;-1.27;100.00;102034.91;5045722;28;20048;-44
2022/10/11 05:06:37;;;;;;;9.38;0.73;;;;;;;-1.32;100.00;102036.91;5046061;28;20025;-44
2022/10/11 05:09:02;;;;;;;1.63;0.50;;;;;;;-1.35;100.00;102031.84;5039423;28;20034;-44
2022/10/11 05:11:28;;;;;;;5.78;0.82;;;;;;;-1.35;100.00;102040.50;5037034;28;20033;-45
2022/10/11 05:13:55;;;;;;;6.10;0.73;;;;;;;-1.37;100.00;102038.88;5044217;28;20153;-47
2022/10/11 05:16:20;;;;;;;3.65;1.05;;;;;;;-1.35;100.00;102039.66;5038080;28;20108;-45
2022/10/11 05:18:46;;;;;;;3.17;0.35;;;;;;;-1.33;100.00;102045.63;5038725;28;20574;-44
2022/10/11 05:21:26;;;;;;;2.60;0.63;;;;;;;-1.40;100.00;102045.06;5042535;28;20045;-44
2022/10/11 05:23:52;;;;;;;5.32;0.80;;;;;;;-1.39;100.00;102045.94;5041576;28;20036;-44
2022/10/11 05:26:19;;;;;;;6.18;0.77;;;;;;;-1.38;100.00;102043.25;5034292;28;20052;-44
2022/10/11 05:28:45;;;;;;;2.08;0.57;;;;;;;-1.38;100.00;102053.66;5038041;28;20037;-45
2022/10/11 05:31:11;;;;;;;5.88;1.48;;;;;;;-1.40;100.00;102052.03;5033155;28;20116;-43
2022/10/11 05:33:37;;;;;;;6.53;1.17;;;;;;;-1.37;100.00;102046.69;5033514;28;20041;-44
2022/10/11 05:36:04;;;;;;;3.97;1.00;;;;;;;-1.41;100.00;102053.81;5047899;28;20028;-45
2022/10/11 05:38:30;;;;;;;2.35;0.55;;;;;;;-1.45;100.00;102054.03;5040302;28;20029;-46
2022/10/11 05:40:58;;;;;;;5.80;0.75;;;;;;;-1.39;100.00;102051.16;5039096;28;20546;-44
2022/10/11 05:43:24;;;;;;;1.77;0.55;;;;;;;-1.45;100.00;102057.47;5045815;28;20472;-44
2022/10/11 05:45:49;;;;;;;2.03;0.38;;;;;;;-1.46;100.00;102055.78;5038155;28;20488;-44
2022/10/11 05:48:15;;;;;;;1.35;0.35;;;;;;;-1.45;100.00;102057.47;5030707;28;20028;-46
2022/10/11 05:50:40;;;;;;;2.08;0.38;;;;;;;-1.46;100.00;102057.56;5040040;28;20609;-46
2022/10/11 05:53:05;;;;;;;6.32;1.00;;;;;;;-1.47;100.00;102056.72;5025782;28;20098;-46
2022/10/11 05:55:39;;;;;;;0.77;0.10;;;;;;;-1.50;100.00;102053.41;5034668;28;20434;-48
2022/10/11 05:58:05;;;;;;;3.63;0.43;;;;;;;-1.58;100.00;102046.81;5036593;28;20060;-45
2022/10/11 06:00:31;;;;;;;6.55;0.47;;;;;;;-1.51;100.00;102047.38;5037144;28;20079;-44
2022/10/11 06:02:56;;;;;;;2.38;0.57;;;;;;;-1.48;100.00;102051.59;5032492;28;20037;-44
2022/10/11 06:05:22;;;;;;;0.82;0.13;;;;;;;-1.51;100.00;102051.75;5039103;28;20128;-47
2022/10/11 06:07:47;;;;;;;5.50;0.60;;;;;;;-1.49;100.00;102055.13;5034696;28;20384;-45
2022/10/11 06:10:12;;;;;;;6.50;0.60;;;;;;;-1.50;100.00;102053.41;5032237;28;20029;-44
2022/10/11 06:12:38;;;;;;;2.17;0.55;;;;;;;-1.54;100.00;102063.13;5032383;28;20025;-45
2022/10/11 06:15:05;;;;;;;4.05;0.45;;;;;;;-1.52;100.00;102061.31;5026214;28;20042;-44
2022/10/11 06:17:30;;;;;;;4.70;0.57;;;;;;;-1.56;100.00;102065.78;5036345;28;20037;-48
2022/10/11 06:19:56;;;;;;;3.63;1.02;;;;;;;-1.60;100.00;102068.63;5038472;28;20039;-46
2022/10/11 06:22:21;;;;;;;6.05;1.00;;;;;;;-1.60;100.00;102064.28;5034866;28;20104;-48
2022/10/11 06:24:47;;;;;;;4.85;0.40;;;;;;;-1.53;100.00;102057.00;5032321;28;20393;-46
2022/10/11 06:27:12;;;;;;;0.75;0.28;;;;;;;-1.56;100.00;102068.41;5035513;28;20100;-46
2022/10/11 06:29:37;;;;;;;3.70;0.50;;;;;;;-1.55;100.00;102067.50;5033388;28;20047;-45
2022/10/11 06:32:03;;;;;;;4.13;0.30;;;;;;;-1.52;100.00;102065.66;5034996;28;20029;-47
2022/10/11 06:34:28;;;;;;;2.20;0.47;;;;;;;-1.54;100.00;102068.34;5028265;28;20036;-42
2022/10/11 06:36:54;;;;;;;2.83;0.47;;;;;;;-1.51;100.00;102069.94;5027473;28;20144;-43
2022/10/11 06:39:19;;;;;;;6.50;0.43;;;;;;;-1.54;100.00;102074.38;5039432;28;20072;-43
2022/10/11 06:41:45;;;;;;;3.13;0.40;;;;;;;-1.54;100.00;102074.38;5036836;28;20037;-43
2022/10/11 06:44:11;;;;;;;4.28;0.40;;;;;;;-1.46;100.00;102073.16;5031716;28;20079;-43
2022/10/11 06:46:36;;;;;;;6.97;0.77;;;;;;;-1.43;100.00;102071.25;5028451;28;20162;-45
2022/10/11 06:49:02;;;;;;;6.40;3.10;;;;;;;-1.47;100.00;102069.72;5034210;28;20784;-44
2022/10/11 06:51:29;;;;;;;3.40;0.57;;;;;;;-1.40;100.00;102085.88;5027990;28;20040;-45
2022/10/11 06:54:00;;;;;;;2.63;0.70;;;;;;;-1.38;100.00;102084.03;5030955;28;20017;-44
2022/10/11 06:56:27;;;;;;;1.75;0.63;;;;;;;-1.43;100.00;102086.03;5029711;28;20043;-45
2022/10/11 06:58:53;;;;;;;3.92;0.17;;;;;;;-1.46;100.00;102092.22;5038443;28;20029;-45
2022/10/11 07:01:22;;;;;;;1.27;0.47;;;;;;;-1.40;100.00;102094.50;5031695;28;22021;-46
2022/10/11 07:03:48;;;;;;;0.47;0.08;;;;;;;-1.27;100.00;102092.16;5042990;28;20119;-46
2022/10/11 07:06:19;;;;;;;3.00;0.15;;;;;;;-1.24;100.00;102097.25;5036958;28;20107;-44
2022/10/11 07:08:45;;;;;;;1.00;0.85;;;;;;;-1.26;100.00;102101.69;5033194;28;20029;-45
2022/10/11 07:11:16;;;;;;;1.85;0.55;;;;;;;-1.24;100.00;102097.25;5031161;28;20114;-44
2022/10/11 07:13:41;;;;;;;4.55;1.83;;;;;;;-1.24;100.00;102099.84;5037712;28;20049;-43
2022/10/11 07:16:10;;;;;;;4.45;0.85;;;;;;;-1.12;100.00;102094.00;5036879;28;20061;-46
2022/10/11 07:18:36;;;;;;;2.33;1.10;;;;;;;-1.05;100.00;102096.34;5042554;28;20147;-45
2022/10/11 07:21:05;;;;;;;2.53;0.75;;;;;;;-1.07;100.00;102104.22;5034998;28;20104;-45
2022/10/11 07:23:31;;;;;;;3.55;1.25;;;;;;;-1.05;100.00;102096.34;5034440;28;20060;-46
2022/10/11 07:25:57;;;;;;;1.92;1.08;;;;;;;-0.94;100.00;102094.03;5035393;28;20475;-44
2022/10/11 07:28:23;;;;;;;5.00;0.82;;;;;;;-0.93;100.00;102112.19;5029068;28;20041;-44
2022/10/11 07:30:49;;;;;;;2.55;0.80;;;;;;;-0.89;100.00;102107.66;5035380;28;20056;-48
2022/10/11 07:33:14;;;;;;;8.70;0.95;;;;;;;-0.85;100.00;102105.72;5037488;28;20526;-46
2022/10/11 07:35:40;;;;;;;2.65;1.10;;;;;;;-0.66;100.00;102109.09;5034665;28;20029;-46
2022/10/11 07:38:06;;;;;;;3.17;0.77;;;;;;;-0.37;100.00;102115.41;5031956;28;20025;-45
2022/10/11 07:40:33;;;;;;;2.50;0.80;;;;;;;-0.03;100.00;102116.22;5031305;28;20029;-45
2022/10/11 07:42:59;;;;;;;1.75;0.50;;;;;;;0.13;100.00;102124.06;5044552;28;20081;-45
2022/10/11 07:45:27;;;;;;;0.47;0.47;;;;;;;0.28;100.00;102114.56;5040783;28;20033;-45
2022/10/11 07:47:55;;;;;;;3.80;1.00;;;;;;;0.49;100.00;102113.41;5040953;28;20086;-45
2022/10/11 07:50:20;;;;;;;3.63;0.30;;;;;;;0.72;100.00;102117.28;5036181;28;20030;-45
2022/10/11 07:52:45;;;;;;;4.38;0.70;;;;;;;0.90;100.00;102125.84;5035215;28;20380;-43
2022/10/11 07:55:11;;;;;;;4.28;0.82;;;;;;;1.03;100.00;102126.84;5032470;28;20123;-47
2022/10/11 07:57:36;;;;;;;0.98;0.13;;;;;;;1.23;100.00;102122.22;5041558;28;20040;-44
2022/10/11 08:00:03;;;;;;;5.50;0.90;;;;;;;1.46;100.00;102132.16;5041418;28;20025;-46
2022/10/11 08:02:29;;;;;;;2.80;0.40;;;;;;;1.58;100.00;102132.38;5044968;28;20295;-46
2022/10/11 08:04:54;;;;;;;2.13;0.57;;;;;;;1.72;100.00;102124.53;5038750;28;20037;-49
2022/10/11 08:07:19;;;;;;;4.57;1.75;;;;;;;1.95;100.00;102130.97;5036114;28;20112;-46
2022/10/11 08:09:45;;;;;;;5.80;1.08;;;;;;;2.14;100.00;102128.91;5037240;28;20059;-47
2022/10/11 08:12:10;;;;;;;1.35;0.88;;;;;;;2.32;100.00;102134.75;5040050;28;20056;-46
2022/10/11 08:14:35;;;;;;;5.75;0.63;;;;;;;2.59;100.00;102132.16;5044570;28;20092;-43
2022/10/11 08:17:01;;;;;;;4.80;1.20;;;;;;;2.79;100.00;102132.66;5036129;28;20033;-48
2022/10/11 08:19:27;;;;;;;6.38;2.30;;;;;;;2.96;100.00;102134.97;5041472;28;20049;-45
2022/10/11 08:21:52;;;;;;;3.53;0.88;;;;;;;3.20;100.00;102132.53;5035284;28;20438;-46
2022/10/11 08:24:19;;;;;;;8.75;0.95;;;;;;;3.42;100.00;102131.09;5034980;28;20546;-46
2022/10/11 08:26:46;;;;;;;4.03;0.43;;;;;;;3.60;100.00;102127.19;5047290;28;20049;-49
2022/10/11 08:29:12;;;;;;;4.47;1.00;;;;;;;3.85;100.00;102123.72;5033862;28;20083;-44
2022/10/11 08:31:37;;;;;;;5.47;2.97;;;;;;;4.17;100.00;102125.03;5041768;28;20037;-46
2022/10/11 08:34:02;;;;;;;11.18;2.67;;;;;;;4.44;100.00;102130.06;5036401;28;20497;-46
2022/10/11 08:36:28;;;;;;;8.13;1.35;;;;;;;4.62;100.00;102126.16;5037661;28;20536;-44
2022/10/11 08:38:53;;;;;;;3.10;1.17;;;;;;;4.91;100.00;102118.72;5032512;28;20029;-45
2022/10/11 08:41:42;;;;;;;7.65;2.80;;;;;;;5.23;100.00;102126.81;5036038;28;20037;-48
2022/10/11 08:44:34;;;;;;;8.63;1.67;;;;;;;5.50;100.00;102124.84;5030094;28;20250;-46
2022/10/11 08:47:18;;;;;;;13.68;1.67;;;;;;;5.77;100.00;102127.97;5035534;28;20029;-45
2022/10/11 08:49:43;;;;;;;5.93;1.33;;;;;;;5.94;100.00;102117.94;5034389;28;20489;-44
2022/10/11 08:52:38;;;;;;;4.15;1.77;;;;;;;6.16;100.00;102123.19;5039902;28;20040;-46
2022/10/11 08:55:18;;;;;;;11.70;2.67;;;;;;;6.40;100.00;102124.81;5034132;28;20025;-46
2022/10/11 08:57:49;;;;;;;11.90;3.47;;;;;;;6.59;100.00;102111.84;5040581;28;20382;-48
2022/10/11 09:00:17;;;;;;;10.82;2.20;;;;;;;6.77;100.00;102115.63;5036747;28;20032;-45
2022/10/11 09:02:52;;;;;;;8.48;2.88;;;;;;;7.02;100.00;102113.56;5042790;28;20101;-48
2022/10/11 09:05:18;;;;;;;9.07;2.63;;;;;;;7.22;100.00;102114.53;5043462;28;20106;-47
2022/10/11 09:08:09;;;;;;;5.60;2.65;;;;;;;7.46;100.00;102114.28;5040481;28;20033;-47
2022/10/11 09:10:53;;;;;;;6.65;1.45;;;;;;;7.69;100.00;102106.19;5032523;28;20033;-46
2022/10/11 09:13:40;;;;;;;4.82;1.55;;;;;;;7.82;100.00;102101.50;5040004;28;20025;-47
2022/10/11 09:16:31;;;;;;;4.60;2.05;;;;;;;7.99;100.00;102098.25;5032745;28;20063;-47
2022/10/11 09:19:15;;;;;;;6.90;2.08;;;;;;;8.30;100.00;102095.53;5041058;28;20466;-45
2022/10/11 09:22:05;;;;;;;5.97;0.60;;;;;;;8.50;100.00;102093.78;5039641;28;20041;-47
2022/10/11 09:24:46;;;;;;;2.83;0.82;;;;;;;8.69;100.00;102096.44;5028934;28;20056;-46
2022/10/11 09:27:19;;;;;;;6.67;2.00;;;;;;;8.91;100.00;102095.31;5037931;28;20053;-47
2022/10/11 09:30:00;;;;;;;5.18;1.13;;;;;;;9.07;100.00;102102.69;5038933;28;20723;-47
2022/10/11 09:32:31;;;;;;;10.03;1.10;;;;;;;9.24;100.00;102097.63;5039224;28;20032;-46
2022/10/11 09:35:10;;;;;;;7.20;1.60;;;;;;;9.34;100.00;102090.50;5043821;28;20282;-47
2022/10/11 09:38:04;;;;;;;5.00;1.65;;;;;;;9.47;100.00;102092.81;5040103;28;20374;-48
2022/10/11 09:40:46;;;;;;;9.25;1.58;;;;;;;9.73;100.00;102093.00;5037345;28;20091;-46
2022/10/11 09:43:12;;;;;;;;;;;;;;;9.95;100.00;102082.03;5032961;28;20033;-44
2022/10/11 09:45:41;;;;;;;13.50;2.17;;;;;;;10.06;100.00;102073.03;5041779;28;20016;-46
2022/10/11 09:48:08;;;;;;;5.90;1.35;;;;;;;10.18;100.00;102077.16;5031943;28;20177;-45
2022/10/11 09:50:33;;;;;;;8.23;0.90;;;;;;;10.35;100.00;102083.50;5041443;28;20502;-45
2022/10/11 09:53:03;;;;;;;9.02;0.90;;;;;;;10.44;100.00;102073.81;5035203;28;20036;-48
2022/10/11 09:55:42;;;;;;;2.17;0.77;;;;;;;10.55;100.00;102076.22;5041505;28;20079;-47
2022/10/11 09:58:29;;;;;;;5.03;0.52;;;;;;;10.67;100.00;102080.31;5035797;28;20459;-46
2022/10/11 10:01:06;;;;;;;11.90;1.38;;;;;;;10.83;100.00;102073.47;5034169;28;20358;-48
2022/10/11 10:03:34;;;;;;;2.92;0.77;;;;;;;10.99;100.00;102062.16;5043218;28;20450;-47
2022/10/11 10:06:30;;;;;;;6.65;1.77;;;;;;;11.15;100.00;102075.53;5035023;28;20022;-45
2022/10/11 10:09:19;;;;;;;8.75;2.47;;;;;;;11.33;100.00;102070.16;5036457;28;20037;-49
2022/10/11 10:11:44;;;;;;;5.00;1.30;;;;;;;11.47;100.00;102071.41;5037307;28;20044;-50
2022/10/11 10:14:20;;;;;;;11.10;2.85;;;;;;;11.63;100.00;102057.38;5039878;28;20026;-46
2022/10/11 10:16:45;;;;;;;9.80;2.42;;;;;;;11.81;100.00;102055.44;5039060;28;20086;-47
2022/10/11 10:19:20;;;;;;;7.70;1.23;;;;;;;11.92;100.00;102057.00;5042395;28;20030;-49
2022/10/11 10:21:52;;;;;;;6.03;0.40;;;;;;;12.11;100.00;102046.13;5044366;28;20429;-49
2022/10/11 10:24:36;;;;;;;14.93;1.05;;;;;;;12.28;100.00;102033.66;5039267;28;20386;-48
2022/10/11 10:27:13;;;;;;;5.68;1.38;;;;;;;12.39;100.00;102025.38;5043075;28;20057;-49
2022/10/11 10:29:39;;;;;;;6.50;0.93;;;;;;;12.45;100.00;102026.53;5036495;28;20042;-48
2022/10/11 10:32:29;;;;;;;4.93;0.82;;;;;;;12.60;100.00;102035.53;5041242;28;20112;-48
2022/10/11 10:35:29;;;;;;;16.15;2.85;;;;;;;12.80;100.00;102030.69;5047039;28;20043;-50
2022/10/11 10:38:06;;;;;;;3.92;1.10;;;;;;;12.91;100.00;102031.31;5039284;28;20059;-52
2022/10/11 10:40:40;;;;;;;4.90;0.77;;;;;;;13.02;100.00;102025.66;5044140;28;20343;-47
2022/10/11 10:43:14;;;;;;;3.58;0.47;;;;;;;13.16;100.00;102018.81;5042141;28;20425;-48
2022/10/11 10:46:15;;;;;;;6.93;0.63;;;;;;;13.30;100.00;102018.97;5044156;28;20072;-45
2022/10/11 10:48:46;;;;;;;8.27;0.75;;;;;;;13.46;100.00;102004.75;5038451;28;20434;-46
2022/10/11 10:51:27;;;;;;;7.32;2.22;;;;;;;13.50;100.00;102014.06;5043279;28;20028;-46
2022/10/11 10:54:13;;;;;;;2.17;0.45;;;;;;;13.48;100.00;101997.44;5044189;28;20082;-47
2022/10/11 10:56:56;;;;;;;8.68;1.35;;;;;;;13.65;100.00;102002.66;5041788;28;20489;-46
2022/10/11 10:59:36;;;;;;;2.92;0.80;;;;;;;13.60;100.00;101994.38;5032516;28;20032;-46
2022/10/11 11:02:08;;;;;;;6.15;1.92;;;;;;;13.50;100.00;101981.25;5042785;28;20393;-50
2022/10/11 11:04:35;;;;;;;3.40;0.70;;;;;;;13.49;100.00;101985.75;5040399;28;20045;-47
2022/10/11 11:07:30;;;;;;;6.00;1.10;;;;;;;13.55;100.00;101986.88;5033170;28;20025;-46
2022/10/11 11:10:06;;;;;;;16.17;3.40;;;;;;;13.74;100.00;101990.97;5037437;28;20039;-46
2022/10/11 11:12:46;;;;;;;13.82;2.72;;;;;;;13.96;100.00;101984.84;5036300;28;20038;-52
2022/10/11 11:15:21;;;;;;;11.40;3.92;;;;;;;14.14;100.00;101987.19;5034384;28;20478;-47
2022/10/11 11:17:56;;;;;;;8.35;2.25;;;;;;;14.18;100.00;101980.50;5039660;28;20103;-53
2022/10/11 11:20:42;;;;;;;7.13;1.65;;;;;;;14.42;100.00;101978.66;5037202;28;20040;-49
2022/10/11 11:23:46;;;;;;;3.20;0.63;;;;;;;14.54;100.00;101977.25;5034874;28;20055;-48
2022/10/11 11:26:43;;;;;;;5.50;1.88;;;;;;;14.48;100.00;101967.28;5038366;28;20190;-46
2022/10/11 11:29:27;;;;;;;6.43;0.75;;;;;;;14.38;100.00;101966.69;5027234;28;20045;-48
2022/10/11 11:32:01;;;;;;;10.10;1.27;;;;;;;14.61;100.00;101962.19;5043925;28;20025;-49
2022/10/11 11:34:44;;;;;;;7.05;1.30;;;;;;;14.76;100.00;101964.03;5046812;28;20027;-47
2022/10/11 11:37:33;;;;;;;2.97;0.85;;;;;;;14.96;100.00;101954.47;5043633;28;20028;-47